Terminal Aerodrome Forecast
Issued by NWS

Home | Current Version | Previous Version | Graphics & Text | Print | Product List | Glossary Off
Versions: 1 2 3 4 5 6 7 8 9 10 11 12 13 14 15 16 17 18 19 20 21 22 23 24 25 26 27

000
FTUS41 KCLE 240500
TAFFDY
TAF
KFDY 240540Z 2406/2506 22003KT 6SM BR BKN250
      TEMPO 2406/2409 3SM BR
     FM240900 22003KT 3SM BR SCT100
      TEMPO 2410/2413 1 1/2SM BR
     FM241400 24005KT P6SM SCT040 BKN100
     FM241800 24007KT P6SM BKN045
     FM242200 22005KT P6SM SCT050=

USA.gov is the U.S. government's official web portal to all federal, state and local government web resources and services.